createdAt,value
2018-12-17T00:02:30.414Z,2.93
2018-12-17T00:04:59.781Z,3.40
2018-12-17T00:07:30.120Z,3.43
2018-12-17T00:09:59.016Z,4.53
2018-12-17T00:12:27.624Z,4.50
2018-12-17T00:14:56.145Z,4.27
2018-12-17T00:17:24.657Z,4.57
2018-12-17T00:20:00.088Z,3.70
2018-12-17T00:22:31.357Z,2.80
2018-12-17T00:25:01.670Z,3.40
2018-12-17T00:27:31.743Z,3.00
2018-12-17T00:30:00.218Z,3.10
2018-12-17T00:32:28.841Z,5.90
2018-12-17T00:35:00.555Z,3.77
2018-12-17T00:37:30.014Z,9.50
2018-12-17T00:39:59.177Z,6.57
2018-12-17T00:42:27.742Z,4.40
2018-12-17T00:45:04.022Z,6.97
2018-12-17T00:47:32.494Z,5.17
2018-12-17T00:50:01.039Z,6.07
2018-12-17T00:52:29.967Z,5.50
2018-12-17T00:54:58.435Z,7.10
2018-12-17T00:57:27.233Z,6.20
2018-12-17T00:59:56.211Z,4.17
2018-12-17T01:02:24.865Z,4.87
2018-12-17T01:04:54.208Z,6.93
2018-12-17T01:07:28.323Z,6.17
2018-12-17T01:09:57.111Z,11.37
2018-12-17T01:12:25.731Z,11.00
2018-12-17T01:14:54.470Z,11.10
2018-12-17T01:17:23.945Z,6.70
2018-12-17T01:19:52.522Z,5.47
2018-12-17T01:22:21.561Z,6.80
2018-12-17T01:24:50.054Z,7.93
2018-12-17T01:27:20.714Z,4.70
2018-12-17T01:29:49.446Z,5.70
2018-12-17T01:32:18.905Z,5.47
2018-12-17T01:34:47.770Z,6.10
2018-12-17T01:37:16.364Z,7.03
2018-12-17T01:39:44.873Z,7.90
2018-12-17T01:42:14.238Z,6.90
2018-12-17T01:44:44.689Z,7.50
2018-12-17T01:47:13.136Z,7.10
2018-12-17T01:49:41.596Z,6.50
2018-12-17T01:52:10.086Z,7.50
2018-12-17T01:54:38.634Z,7.40
2018-12-17T01:57:07.109Z,6.00
2018-12-17T01:59:35.638Z,5.40
2018-12-17T02:02:04.162Z,9.97
2018-12-17T02:04:33.222Z,7.53
2018-12-17T02:07:01.677Z,6.93
2018-12-17T02:09:31.533Z,7.43
2018-12-17T02:11:59.973Z,6.63
2018-12-17T02:14:29.951Z,8.20
2018-12-17T02:16:58.440Z,9.20
2018-12-17T02:19:26.971Z,9.13
2018-12-17T02:21:55.719Z,10.47
2018-12-17T02:24:25.041Z,11.90
2018-12-17T02:26:53.531Z,8.23
2018-12-17T02:29:22.139Z,8.40
2018-12-17T02:31:51.382Z,9.30
2018-12-17T02:34:19.867Z,9.60
2018-12-17T02:36:49.437Z,10.20
2018-12-17T02:39:19.645Z,8.17
2018-12-17T02:41:48.189Z,6.77
2018-12-17T02:44:17.832Z,7.03
2018-12-17T02:46:47.229Z,6.83
2018-12-17T02:49:18.554Z,6.50
2018-12-17T02:51:48.599Z,7.47
2018-12-17T02:54:17.255Z,8.17
2018-12-17T02:56:47.449Z,10.57
2018-12-17T02:59:17.383Z,10.20
2018-12-17T03:01:45.932Z,11.50
2018-12-17T03:04:20.670Z,13.40
2018-12-17T03:06:49.706Z,8.97
2018-12-17T03:09:21.456Z,8.00
2018-12-17T03:11:52.158Z,7.30
2018-12-17T03:14:24.117Z,8.50
2018-12-17T03:16:57.800Z,8.30
2018-12-17T03:19:32.662Z,7.77
2018-12-17T03:22:02.106Z,11.67
2018-12-17T03:24:37.149Z,12.53
2018-12-17T03:29:41.076Z,9.93
2018-12-17T03:32:11.599Z,7.70
2018-12-17T03:34:40.334Z,7.20
2018-12-17T03:37:08.922Z,6.07
2018-12-17T03:39:43.054Z,5.50
2018-12-17T03:42:15.018Z,5.60
2018-12-17T03:44:44.522Z,5.00
2018-12-17T03:47:17.190Z,4.20
2018-12-17T03:49:48.398Z,5.50
2018-12-17T03:52:37.097Z,4.40
2018-12-17T03:55:06.533Z,3.27
2018-12-17T03:58:00.576Z,3.60
2018-12-17T04:00:34.985Z,5.03
2018-12-17T04:03:08.375Z,5.27
2018-12-17T04:05:36.837Z,6.40
2018-12-17T04:08:07.906Z,5.87
2018-12-17T04:10:37.634Z,6.47
2018-12-17T04:13:06.290Z,6.00
2018-12-17T04:15:35.967Z,5.33
2018-12-17T04:18:06.315Z,5.37
2018-12-17T04:20:34.814Z,4.73
2018-12-17T04:23:03.274Z,5.27
2018-12-17T04:25:31.765Z,5.30
2018-12-17T04:28:00.242Z,7.23
2018-12-17T04:30:28.709Z,7.63
2018-12-17T04:32:57.293Z,8.00
2018-12-17T04:35:25.745Z,7.60
2018-12-17T04:37:54.203Z,9.00
2018-12-17T04:40:22.777Z,7.80
2018-12-17T04:42:51.421Z,8.10
2018-12-17T04:45:19.901Z,8.90
2018-12-17T04:47:48.419Z,8.47
2018-12-17T04:50:16.949Z,8.80
2018-12-17T04:52:45.441Z,7.33
2018-12-17T04:55:13.931Z,6.10
2018-12-17T04:57:42.502Z,8.10
2018-12-17T05:00:11.063Z,8.80
2018-12-17T05:02:39.534Z,7.67
2018-12-17T05:05:08.124Z,6.00
2018-12-17T05:07:36.584Z,6.30
2018-12-17T05:10:05.578Z,7.43
2018-12-17T05:12:34.057Z,7.30
2018-12-17T05:15:03.771Z,5.20
2018-12-17T05:17:36.258Z,6.57
2018-12-17T05:20:08.306Z,8.23
2018-12-17T05:22:36.799Z,6.57
2018-12-17T05:25:05.700Z,5.93
2018-12-17T05:27:34.178Z,5.77
2018-12-17T05:30:03.061Z,6.50
2018-12-17T05:32:31.538Z,5.30
2018-12-17T05:35:00.063Z,6.93
2018-12-17T05:37:28.554Z,6.33
2018-12-17T05:39:57.032Z,4.37
2018-12-17T05:42:25.514Z,4.40
2018-12-17T05:44:54.011Z,4.07
2018-12-17T05:47:22.492Z,3.83
2018-12-17T05:49:51.026Z,3.83
2018-12-17T05:52:19.552Z,4.40
2018-12-17T05:54:48.034Z,4.57
2018-12-17T05:57:16.526Z,3.90
2018-12-17T05:59:44.994Z,4.20
2018-12-17T06:02:13.478Z,4.33
2018-12-17T06:04:41.962Z,5.47
2018-12-17T06:07:10.437Z,5.53
2018-12-17T06:09:39.289Z,4.20
2018-12-17T06:12:07.755Z,4.43
2018-12-17T06:14:36.226Z,3.20
2018-12-17T06:17:04.757Z,3.60
2018-12-17T06:19:33.233Z,4.20
2018-12-17T06:22:01.712Z,5.13
2018-12-17T06:24:32.676Z,4.80
2018-12-17T06:27:01.155Z,6.17
2018-12-17T06:29:35.374Z,5.27
2018-12-17T06:32:00.061Z,5.00
2018-12-17T06:34:28.541Z,4.93
2018-12-17T06:36:57.074Z,3.40
2018-12-17T06:39:25.571Z,3.40
2018-12-17T06:41:54.130Z,3.20
2018-12-17T06:44:22.717Z,2.83
2018-12-17T06:46:51.186Z,3.30
2018-12-17T06:49:19.730Z,3.07
2018-12-17T06:51:48.288Z,3.33
2018-12-17T06:54:17.259Z,3.70
2018-12-17T06:56:45.745Z,3.90
2018-12-17T06:59:14.706Z,3.63
2018-12-17T07:01:43.183Z,4.10
2018-12-17T07:04:11.686Z,5.83
2018-12-17T07:06:40.146Z,7.47
2018-12-17T07:09:08.662Z,5.20
2018-12-17T07:11:37.172Z,6.70
2018-12-17T07:14:05.670Z,7.67
2018-12-17T07:16:34.197Z,7.43
2018-12-17T07:19:02.730Z,23.00
2018-12-17T07:21:31.222Z,15.60
2018-12-17T07:23:59.908Z,8.10
2018-12-17T07:26:28.890Z,5.00
2018-12-17T07:28:57.513Z,4.57
2018-12-17T07:31:25.994Z,12.10
2018-12-17T07:33:54.849Z,6.40
2018-12-17T07:36:23.287Z,5.07
2018-12-17T07:38:51.769Z,3.90
2018-12-17T07:41:21.295Z,3.80
2018-12-17T07:43:49.783Z,3.80
2018-12-17T07:46:18.257Z,3.50
2018-12-17T07:48:46.770Z,6.90
2018-12-17T07:51:15.251Z,6.30
2018-12-17T07:53:43.744Z,4.93
2018-12-17T07:56:12.298Z,6.33
2018-12-17T07:58:40.753Z,4.63
2018-12-17T08:01:09.248Z,5.90
2018-12-17T08:03:37.998Z,5.07
2018-12-17T08:06:06.596Z,7.47
2018-12-17T08:08:35.617Z,4.93
2018-12-17T08:11:04.331Z,4.80
2018-12-17T08:13:32.992Z,3.20
2018-12-17T08:16:01.517Z,2.80
2018-12-17T08:18:29.977Z,3.63
2018-12-17T08:20:58.814Z,5.80
2018-12-17T08:23:27.289Z,8.60
2018-12-17T08:25:55.763Z,4.90
2018-12-17T08:28:24.944Z,3.93
2018-12-17T08:30:53.489Z,4.10
2018-12-17T08:33:22.048Z,3.27
2018-12-17T08:35:50.623Z,4.13
2018-12-17T08:38:19.180Z,3.47
2018-12-17T08:40:47.662Z,3.67
2018-12-17T08:43:16.137Z,4.30
2018-12-17T08:45:44.669Z,5.27
2018-12-17T08:48:13.147Z,3.70
2018-12-17T08:50:41.705Z,7.43
2018-12-17T08:53:10.161Z,4.73
2018-12-17T08:55:38.684Z,4.50
2018-12-17T08:58:07.174Z,5.63
2018-12-17T09:00:35.687Z,5.00
2018-12-17T09:03:04.215Z,4.03
2018-12-17T09:05:32.679Z,3.77
2018-12-17T09:08:01.176Z,4.83
2018-12-17T09:10:29.669Z,3.30
2018-12-17T09:12:58.230Z,3.47
2018-12-17T09:15:26.766Z,4.37
2018-12-17T09:17:55.247Z,3.40
2018-12-17T09:20:23.720Z,3.70
2018-12-17T09:22:52.222Z,4.77
2018-12-17T09:25:20.763Z,4.53
2018-12-17T09:27:49.246Z,4.97
2018-12-17T09:30:18.472Z,4.90
2018-12-17T09:32:47.290Z,5.00
2018-12-17T09:35:15.793Z,5.27
2018-12-17T09:37:44.314Z,5.03
2018-12-17T09:40:12.843Z,9.00
2018-12-17T09:42:41.356Z,5.30
2018-12-17T09:45:09.855Z,5.83
2018-12-17T09:47:38.339Z,6.20
2018-12-17T09:50:06.929Z,5.33
2018-12-17T09:52:35.402Z,4.90
2018-12-17T09:55:04.070Z,4.80
2018-12-17T09:57:32.594Z,6.23
2018-12-17T10:00:01.112Z,4.73
2018-12-17T10:02:29.601Z,5.37
2018-12-17T10:04:58.070Z,4.27
2018-12-17T10:07:30.436Z,4.20
2018-12-17T10:09:56.966Z,4.13
2018-12-17T10:12:25.456Z,4.50
2018-12-17T10:14:53.952Z,4.13
2018-12-17T10:17:22.428Z,3.80
2018-12-17T10:19:50.889Z,3.70
2018-12-17T10:22:19.377Z,4.03
2018-12-17T10:24:47.863Z,3.67
2018-12-17T10:27:16.513Z,4.50
2018-12-17T10:29:45.079Z,3.53
2018-12-17T10:32:13.647Z,4.00
2018-12-17T10:34:42.165Z,3.73
2018-12-17T10:37:10.754Z,3.60
2018-12-17T10:39:39.214Z,3.90
2018-12-17T10:42:07.807Z,3.30
2018-12-17T10:44:36.284Z,3.50
2018-12-17T10:47:04.833Z,3.40
2018-12-17T10:49:33.317Z,4.10
2018-12-17T10:52:01.786Z,3.70
2018-12-17T10:54:30.278Z,5.87
2018-12-17T10:56:58.744Z,3.87
2018-12-17T10:59:27.223Z,4.40
2018-12-17T11:02:05.965Z,4.60
2018-12-17T11:04:38.797Z,3.80
2018-12-17T11:07:07.378Z,4.20
2018-12-17T11:09:35.983Z,4.63
2018-12-17T11:12:04.563Z,5.43
2018-12-17T11:14:33.053Z,5.07
2018-12-17T11:17:01.581Z,4.43
2018-12-17T11:19:30.061Z,5.13
2018-12-17T11:21:58.547Z,4.63
2018-12-17T11:24:27.108Z,4.70
2018-12-17T11:26:55.672Z,4.40
2018-12-17T11:29:24.160Z,4.50
2018-12-17T11:31:52.650Z,4.43
2018-12-17T11:34:21.254Z,4.27
2018-12-17T11:36:49.730Z,4.10
2018-12-17T11:39:18.277Z,3.90
2018-12-17T11:41:46.803Z,4.00
2018-12-17T11:44:15.367Z,4.57
2018-12-17T11:46:44.440Z,4.40
2018-12-17T11:49:13.216Z,3.20
2018-12-17T11:51:41.694Z,4.17
2018-12-17T11:54:10.185Z,3.23
2018-12-17T11:56:59.319Z,3.20
2018-12-17T11:59:28.082Z,3.40
2018-12-17T12:01:56.915Z,3.70
2018-12-17T12:04:25.774Z,2.57
2018-12-17T12:06:54.607Z,3.83
2018-12-17T12:09:26.134Z,2.50
2018-12-17T12:11:55.022Z,2.90
2018-12-17T12:14:23.895Z,3.57
2018-12-17T12:16:52.688Z,2.63
2018-12-17T12:19:21.510Z,3.03
2018-12-17T12:21:50.389Z,2.17
2018-12-17T12:24:19.294Z,2.30
2018-12-17T12:26:48.105Z,2.43
2018-12-17T12:29:16.894Z,2.20
2018-12-17T12:31:45.690Z,2.00
2018-12-17T12:34:14.508Z,2.37
2018-12-17T12:36:43.298Z,2.50
2018-12-17T12:39:12.127Z,4.87
2018-12-17T12:41:41.005Z,2.60
2018-12-17T12:44:09.843Z,2.57
2018-12-17T12:46:38.679Z,3.23
2018-12-17T12:49:07.499Z,3.77
2018-12-17T12:51:36.323Z,3.63
2018-12-17T12:54:05.259Z,3.80
2018-12-17T12:56:34.110Z,3.50
2018-12-17T12:59:03.066Z,3.57
2018-12-17T13:01:31.948Z,3.67
2018-12-17T13:04:00.805Z,3.73
2018-12-17T13:06:29.712Z,4.40
2018-12-17T13:08:58.538Z,3.63
2018-12-17T13:11:27.351Z,4.37
2018-12-17T13:13:56.155Z,3.47
2018-12-17T13:16:24.977Z,4.50
2018-12-17T13:18:53.795Z,4.50
2018-12-17T13:21:22.688Z,4.00
2018-12-17T13:23:51.483Z,4.37
2018-12-17T13:26:20.287Z,3.97
2018-12-17T13:28:49.232Z,3.80
2018-12-17T13:31:18.007Z,4.27
2018-12-17T13:33:46.919Z,4.20
2018-12-17T13:36:15.810Z,3.97
2018-12-17T13:38:44.698Z,4.03
2018-12-17T13:41:13.550Z,4.27
2018-12-17T13:43:42.346Z,3.77
2018-12-17T13:46:11.140Z,4.00
2018-12-17T13:48:39.994Z,3.77
2018-12-17T13:51:14.343Z,3.73
2018-12-17T13:53:43.202Z,3.90
2018-12-17T13:56:12.118Z,3.90
2018-12-17T13:58:41.022Z,4.27
2018-12-17T14:01:09.949Z,4.03
2018-12-17T14:03:38.783Z,4.17
2018-12-17T14:06:07.611Z,3.20
2018-12-17T14:08:36.460Z,4.97
2018-12-17T14:11:05.415Z,4.20
2018-12-17T14:13:34.390Z,4.27
2018-12-17T14:16:08.706Z,3.90
2018-12-17T14:18:42.865Z,4.20
2018-12-17T14:21:17.054Z,4.30
2018-12-17T14:23:45.897Z,3.80
2018-12-17T14:26:14.686Z,4.50
2018-12-17T14:28:43.529Z,5.40
2018-12-17T14:31:12.359Z,4.23
2018-12-17T14:33:41.241Z,5.00
2018-12-17T14:36:10.624Z,4.07
2018-12-17T14:38:39.784Z,4.00
2018-12-17T14:41:08.667Z,5.00
2018-12-17T14:43:37.502Z,5.23
2018-12-17T14:46:07.384Z,4.10
2018-12-17T14:48:36.227Z,4.90
2018-12-17T14:51:05.037Z,5.20
2018-12-17T14:53:33.870Z,4.77
2018-12-17T14:56:03.025Z,4.30
2018-12-17T14:58:31.983Z,4.30
2018-12-17T15:01:00.771Z,4.43
2018-12-17T15:03:30.011Z,5.27
2018-12-17T15:05:58.798Z,4.90
2018-12-17T15:08:27.632Z,5.50
2018-12-17T15:10:56.449Z,5.23
2018-12-17T15:13:25.338Z,5.30
2018-12-17T15:15:54.152Z,3.90
2018-12-17T15:18:22.931Z,4.30
2018-12-17T15:20:51.823Z,3.93
2018-12-17T15:23:20.614Z,3.80
2018-12-17T15:25:49.410Z,4.57
2018-12-17T15:28:18.370Z,3.93
2018-12-17T15:30:47.594Z,4.37
2018-12-17T15:33:16.491Z,4.00
2018-12-17T15:35:45.329Z,4.20
2018-12-17T15:38:14.164Z,4.10
2018-12-17T15:40:43.210Z,3.90
2018-12-17T15:43:12.021Z,3.57
2018-12-17T15:45:40.905Z,3.30
2018-12-17T15:48:09.708Z,3.00
2018-12-17T15:50:38.524Z,3.60
2018-12-17T15:53:07.163Z,2.63
2018-12-17T15:55:35.906Z,2.40
2018-12-17T15:58:04.784Z,2.50
2018-12-17T16:00:33.639Z,2.47
2018-12-17T16:03:02.495Z,2.50
2018-12-17T16:05:31.373Z,2.30
2018-12-17T16:08:00.186Z,2.00
2018-12-17T16:10:29.050Z,2.90
2018-12-17T16:12:57.844Z,2.20
2018-12-17T16:15:26.684Z,2.60
2018-12-17T16:17:56.646Z,3.10
2018-12-17T16:20:25.469Z,2.50
2018-12-17T16:22:54.276Z,2.73
2018-12-17T16:25:23.146Z,3.00
2018-12-17T16:27:51.942Z,2.70
2018-12-17T16:30:20.779Z,3.30
2018-12-17T16:32:49.790Z,3.80
2018-12-17T16:35:18.618Z,3.30
2018-12-17T16:37:47.506Z,2.90
2018-12-17T16:40:18.069Z,3.30
2018-12-17T16:42:46.944Z,2.80
2018-12-17T16:45:15.854Z,3.03
2018-12-17T16:47:45.453Z,2.90
2018-12-17T16:50:23.551Z,3.57
2018-12-17T16:52:52.971Z,2.77
2018-12-17T16:55:21.899Z,2.97
2018-12-17T16:57:51.478Z,2.37
2018-12-17T17:00:23.569Z,2.50
2018-12-17T17:02:53.954Z,3.17
2018-12-17T17:05:24.928Z,2.93
2018-12-17T17:07:55.910Z,2.23
2018-12-17T17:10:26.647Z,2.07
2018-12-17T17:12:57.599Z,2.80
2018-12-17T17:15:26.562Z,2.10
2018-12-17T17:17:56.870Z,2.37
2018-12-17T17:20:27.606Z,2.80
2018-12-17T17:23:00.154Z,2.23
2018-12-17T17:25:29.439Z,2.40
2018-12-17T17:27:58.300Z,2.50
2018-12-17T17:30:27.119Z,2.83
2018-12-17T17:32:56.094Z,2.90
2018-12-17T17:35:25.518Z,3.67
2018-12-17T17:37:54.325Z,2.93
2018-12-17T17:40:23.140Z,2.43
2018-12-17T17:42:51.966Z,2.70
2018-12-17T17:45:20.996Z,2.40
2018-12-17T17:47:49.864Z,2.73
2018-12-17T17:50:18.668Z,3.30
2018-12-17T17:52:47.945Z,2.97
2018-12-17T17:55:16.820Z,3.40
2018-12-17T17:57:45.670Z,2.37
2018-12-17T18:00:14.703Z,2.13
2018-12-17T18:02:43.590Z,2.60
2018-12-17T18:05:12.529Z,2.80
2018-12-17T18:07:41.388Z,3.20
2018-12-17T18:10:10.414Z,3.10
2018-12-17T18:12:39.218Z,2.50
2018-12-17T18:15:08.166Z,2.40
2018-12-17T18:17:37.083Z,3.00
2018-12-17T18:20:06.102Z,2.50
2018-12-17T18:22:35.134Z,2.23
2018-12-17T18:25:04.069Z,3.50
2018-12-17T18:27:32.870Z,2.97
2018-12-17T18:30:01.945Z,2.87
2018-12-17T18:32:31.124Z,2.73
2018-12-17T18:35:00.065Z,2.60
2018-12-17T18:37:28.888Z,2.70
2018-12-17T18:39:57.827Z,3.03
2018-12-17T18:42:26.719Z,2.50
2018-12-17T18:44:55.569Z,4.27
2018-12-17T18:47:25.912Z,2.53
2018-12-17T18:49:55.078Z,2.50
2018-12-17T18:52:23.926Z,2.50
2018-12-17T18:54:52.927Z,2.60
2018-12-17T18:57:21.809Z,2.70
2018-12-17T18:59:50.654Z,2.33
2018-12-17T19:02:19.839Z,2.37
2018-12-17T19:04:48.662Z,2.40
2018-12-17T19:07:17.512Z,2.20
2018-12-17T19:09:46.364Z,2.47
2018-12-17T19:12:15.195Z,1.97
2018-12-17T19:14:43.990Z,2.30
2018-12-17T19:17:12.836Z,2.17
2018-12-17T19:19:41.714Z,2.40
2018-12-17T19:22:10.739Z,1.90
2018-12-17T19:24:39.539Z,2.33
2018-12-17T19:27:08.522Z,2.20
2018-12-17T19:29:37.365Z,1.43
2018-12-17T19:32:06.229Z,1.90
2018-12-17T19:34:35.130Z,1.80
2018-12-17T19:37:04.087Z,1.93
2018-12-17T19:39:32.899Z,2.30
2018-12-17T19:42:01.782Z,1.77
2018-12-17T19:44:30.581Z,3.23
2018-12-17T19:46:59.391Z,2.73
2018-12-17T19:49:28.228Z,1.87
2018-12-17T19:51:57.027Z,1.83
2018-12-17T19:54:25.822Z,1.83
2018-12-17T19:56:54.646Z,2.03
2018-12-17T19:59:23.530Z,1.73
2018-12-17T20:01:52.317Z,2.00
2018-12-17T20:04:21.421Z,2.27
2018-12-17T20:06:50.251Z,2.20
2018-12-17T20:09:19.090Z,2.80
2018-12-17T20:11:47.951Z,2.97
2018-12-17T20:14:16.766Z,2.07
2018-12-17T20:16:45.569Z,2.00
2018-12-17T20:19:14.763Z,2.00
2018-12-17T20:21:43.623Z,1.70
2018-12-17T20:24:19.321Z,2.33
2018-12-17T20:26:54.392Z,2.13
2018-12-17T20:29:31.969Z,2.20
2018-12-17T20:32:14.330Z,1.73
2018-12-17T20:34:43.243Z,2.70
2018-12-17T20:37:12.112Z,2.80
2018-12-17T20:39:41.292Z,1.90
2018-12-17T20:42:10.109Z,1.40
2018-12-17T20:44:39.132Z,1.60
2018-12-17T20:47:08.294Z,2.30
2018-12-17T20:49:37.177Z,4.90
2018-12-17T20:52:06.070Z,2.30
2018-12-17T20:54:35.092Z,2.90
2018-12-17T20:57:04.011Z,2.53
2018-12-17T20:59:32.999Z,2.20
2018-12-17T21:02:01.897Z,2.23
2018-12-17T21:04:30.739Z,3.33
2018-12-17T21:06:59.629Z,2.33
2018-12-17T21:09:28.481Z,1.90
2018-12-17T21:11:57.356Z,2.80
2018-12-17T21:14:26.916Z,2.70
2018-12-17T21:16:55.796Z,1.70
2018-12-17T21:19:24.663Z,2.20
2018-12-17T21:21:53.532Z,1.60
2018-12-17T21:24:22.463Z,2.13
2018-12-17T21:26:51.653Z,2.70
2018-12-17T21:29:20.513Z,2.67
2018-12-17T21:31:49.385Z,3.00
2018-12-17T21:34:18.471Z,2.10
2018-12-17T21:36:47.338Z,2.70
2018-12-17T21:39:16.216Z,2.20
2018-12-17T21:41:46.137Z,2.73
2018-12-17T21:44:18.547Z,2.30
2018-12-17T21:46:47.500Z,1.97
2018-12-17T21:49:17.222Z,1.90
2018-12-17T21:51:49.892Z,2.27
2018-12-17T21:54:18.739Z,2.00
2018-12-17T21:56:48.998Z,2.00
2018-12-17T21:59:18.082Z,2.60
2018-12-17T22:01:49.134Z,2.60
2018-12-17T22:04:17.984Z,2.13
2018-12-17T22:06:49.251Z,2.17
2018-12-17T22:09:21.416Z,2.30
2018-12-17T22:11:52.363Z,2.40
2018-12-17T22:14:24.970Z,2.53
2018-12-17T22:16:54.926Z,2.20
2018-12-17T22:19:24.715Z,2.57
2018-12-17T22:21:56.200Z,3.20
2018-12-17T22:24:25.404Z,3.30
2018-12-17T22:26:55.321Z,5.57
2018-12-17T22:29:25.462Z,3.93
2018-12-17T22:31:54.676Z,3.60
2018-12-17T22:34:23.666Z,3.23
2018-12-17T22:36:52.879Z,2.93
2018-12-17T22:39:23.389Z,3.50
2018-12-17T22:41:52.551Z,2.83
2018-12-17T22:44:22.250Z,2.30
2018-12-17T22:46:51.379Z,2.27
2018-12-17T22:49:20.910Z,2.43
2018-12-17T22:51:49.885Z,2.80
2018-12-17T22:54:18.931Z,3.73
2018-12-17T22:56:47.831Z,3.43
2018-12-17T22:59:17.592Z,2.50
2018-12-17T23:01:46.528Z,3.03
2018-12-17T23:04:16.044Z,2.10
2018-12-17T23:06:45.082Z,2.40
2018-12-17T23:09:14.968Z,4.37
2018-12-17T23:12:01.783Z,4.40
2018-12-17T23:14:42.025Z,3.90
2018-12-17T23:17:22.273Z,3.20
2018-12-17T23:19:51.318Z,3.57
2018-12-17T23:22:20.944Z,2.53
2018-12-17T23:24:49.940Z,2.80
2018-12-17T23:27:18.953Z,3.20
2018-12-17T23:29:47.825Z,3.20
2018-12-17T23:32:16.654Z,3.60
2018-12-17T23:34:46.078Z,3.60
2018-12-17T23:37:15.012Z,3.40
2018-12-17T23:39:43.846Z,3.80
2018-12-17T23:42:12.766Z,3.10
2018-12-17T23:44:41.767Z,3.60
2018-12-17T23:47:10.735Z,2.70
2018-12-17T23:49:39.737Z,3.23
2018-12-17T23:52:08.712Z,3.60
2018-12-17T23:54:38.087Z,3.53
2018-12-17T23:57:07.124Z,3.07
2018-12-17T23:59:36.550Z,3.20
